DAL223 KLAX-KSAN
Flight info
| Callsign | DAL223 |
|---|---|
| Flight time | 0h 27m |
| Altitude | 13000 |
| Route | LAXX1 MZB DCT |
| Aircraft | A320/M-SDE3FGHIRWY/LB1 |
Departure
| Time | 2026-05-08 03:25 |
|---|---|
| Airport | Los Angeles International Airport (KLAX) |
Arrival
| Time | 2026-05-08 03:52 |
|---|---|
| Airport | San Diego International Airport (KSAN) |
| Time | Latitude | Longitude | Altitude | Speed | Heading |
|---|---|---|---|---|---|
| 2026-05-08 02:46 | 33.94676 | -118.40657 | 93 ft | 0 kts | 263° |
| 2026-05-08 03:15 | 33.94678 | -118.40635 | 93 ft | 4 kts | 263° |
| 2026-05-08 03:15 | 33.94681 | -118.40608 | 93 ft | 4 kts | 273° |
| 2026-05-08 03:15 | 33.94673 | -118.40590 | 92 ft | 4 kts | 349° |
| 2026-05-08 03:15 | 33.94647 | -118.40586 | 92 ft | 4 kts | 354° |
| 2026-05-08 03:16 | 33.94634 | -118.40585 | 92 ft | 0 kts | 354° |
| 2026-05-08 03:19 | 33.94635 | -118.40585 | 92 ft | 1 kts | 354° |
| 2026-05-08 03:19 | 33.94694 | -118.40592 | 93 ft | 16 kts | 354° |
| 2026-05-08 03:20 | 33.94819 | -118.40598 | 95 ft | 18 kts | 355° |
| 2026-05-08 03:20 | 33.94874 | -118.40500 | 96 ft | 15 kts | 85° |
| 2026-05-08 03:20 | 33.94885 | -118.40384 | 94 ft | 13 kts | 83° |
| 2026-05-08 03:20 | 33.94895 | -118.40277 | 94 ft | 12 kts | 83° |
| 2026-05-08 03:21 | 33.94906 | -118.40171 | 95 ft | 17 kts | 83° |
| 2026-05-08 03:21 | 33.94923 | -118.40006 | 93 ft | 20 kts | 83° |
| 2026-05-08 03:21 | 33.94950 | -118.39926 | 94 ft | 0 kts | 45° |
| 2026-05-08 03:21 | 33.94974 | -118.39914 | 95 ft | 13 kts | 13° |
| 2026-05-08 03:22 | 33.95040 | -118.39988 | 94 ft | 8 kts | 262° |
| 2026-05-08 03:22 | 33.95040 | -118.39991 | 94 ft | 0 kts | 261° |
| 2026-05-08 03:22 | 33.95039 | -118.39996 | 93 ft | 0 kts | 262° |
| 2026-05-08 03:24 | 33.95038 | -118.40007 | 93 ft | 6 kts | 262° |
| 2026-05-08 03:24 | 33.95019 | -118.40188 | 99 ft | 39 kts | 264° |
| 2026-05-08 03:25 | 33.94959 | -118.40770 | 98 ft | 99 kts | 263° |
| 2026-05-08 03:25 | 33.94855 | -118.41796 | 97 ft | 146 kts | 263° |
| 2026-05-08 03:25 | 33.94744 | -118.43036 | 569 ft | 145 kts | 265° |
| 2026-05-08 03:25 | 33.94624 | -118.44242 | 1138 ft | 146 kts | 261° |
| 2026-05-08 03:26 | 33.94463 | -118.45465 | 1625 ft | 151 kts | 255° |
| 2026-05-08 03:26 | 33.93866 | -118.46529 | 1922 ft | 168 kts | 213° |
| 2026-05-08 03:26 | 33.92666 | -118.46827 | 2322 ft | 191 kts | 169° |
| 2026-05-08 03:26 | 33.91468 | -118.46014 | 2698 ft | 213 kts | 132° |
| 2026-05-08 03:27 | 33.90743 | -118.44356 | 2978 ft | 239 kts | 109° |
| 2026-05-08 03:27 | 33.90116 | -118.42392 | 3360 ft | 264 kts | 118° |
| 2026-05-08 03:27 | 33.88862 | -118.40700 | 3943 ft | 279 kts | 148° |
| 2026-05-08 03:27 | 33.87047 | -118.39880 | 4755 ft | 282 kts | 176° |
| 2026-05-08 03:28 | 33.85090 | -118.39963 | 5593 ft | 283 kts | 190° |
| 2026-05-08 03:28 | 33.83131 | -118.40275 | 6495 ft | 286 kts | 191° |
| 2026-05-08 03:28 | 33.81152 | -118.40623 | 7328 ft | 289 kts | 191° |
| 2026-05-08 03:28 | 33.79148 | -118.40995 | 8194 ft | 293 kts | 191° |
| 2026-05-08 03:29 | 33.77123 | -118.41393 | 9070 ft | 297 kts | 191° |
| 2026-05-08 03:29 | 33.75066 | -118.41714 | 9918 ft | 302 kts | 180° |
| 2026-05-08 03:29 | 33.72969 | -118.41252 | 10381 ft | 319 kts | 156° |
| 2026-05-08 03:29 | 33.71111 | -118.39661 | 10638 ft | 341 kts | 130° |
| 2026-05-08 03:30 | 33.68110 | -118.34873 | 11475 ft | 370 kts | 125° |
| 2026-05-08 03:30 | 33.65026 | -118.29864 | 12777 ft | 376 kts | 126° |
| 2026-05-08 03:31 | 33.61862 | -118.24795 | 13012 ft | 394 kts | 126° |
| 2026-05-08 03:31 | 33.58430 | -118.19323 | 13014 ft | 413 kts | 126° |
| 2026-05-08 03:32 | 33.56699 | -118.16567 | 13013 ft | 414 kts | 126° |
| 2026-05-08 03:32 | 33.54965 | -118.13811 | 13010 ft | 414 kts | 126° |
| 2026-05-08 03:32 | 33.53232 | -118.11056 | 13011 ft | 414 kts | 126° |
| 2026-05-08 03:32 | 33.51504 | -118.08311 | 13010 ft | 414 kts | 126° |
| 2026-05-08 03:33 | 33.49769 | -118.05552 | 13011 ft | 414 kts | 126° |
| 2026-05-08 03:33 | 33.48044 | -118.02802 | 13015 ft | 413 kts | 126° |
| 2026-05-08 03:33 | 33.46315 | -118.00046 | 13014 ft | 413 kts | 126° |
| 2026-05-08 03:33 | 33.44586 | -117.97294 | 13014 ft | 413 kts | 126° |
| 2026-05-08 03:34 | 33.42928 | -117.94496 | 13002 ft | 412 kts | 117° |
| 2026-05-08 03:34 | 33.41610 | -117.91454 | 13161 ft | 413 kts | 117° |
| 2026-05-08 03:34 | 33.40117 | -117.88521 | 13033 ft | 412 kts | 125° |
| 2026-05-08 03:34 | 33.38297 | -117.85884 | 13004 ft | 410 kts | 130° |
| 2026-05-08 03:35 | 33.36357 | -117.83385 | 12995 ft | 410 kts | 131° |
| 2026-05-08 03:35 | 33.34422 | -117.80885 | 12988 ft | 410 kts | 130° |
| 2026-05-08 03:35 | 33.32546 | -117.78308 | 12991 ft | 411 kts | 128° |
| 2026-05-08 03:35 | 33.30749 | -117.75651 | 12991 ft | 411 kts | 127° |
| 2026-05-08 03:36 | 33.29014 | -117.72937 | 13000 ft | 411 kts | 125° |
| 2026-05-08 03:36 | 33.27309 | -117.70192 | 13004 ft | 411 kts | 125° |
| 2026-05-08 03:36 | 33.25611 | -117.67437 | 13010 ft | 412 kts | 125° |
| 2026-05-08 03:36 | 33.23908 | -117.64688 | 13007 ft | 412 kts | 125° |
| 2026-05-08 03:37 | 33.22194 | -117.61949 | 13013 ft | 412 kts | 125° |
| 2026-05-08 03:37 | 33.20470 | -117.59224 | 13016 ft | 411 kts | 126° |
| 2026-05-08 03:37 | 33.18734 | -117.56507 | 13018 ft | 411 kts | 126° |
| 2026-05-08 03:37 | 33.16994 | -117.53795 | 13020 ft | 411 kts | 126° |
| 2026-05-08 03:38 | 33.15258 | -117.51086 | 13022 ft | 411 kts | 126° |
| 2026-05-08 03:38 | 33.13523 | -117.48372 | 13022 ft | 411 kts | 126° |
| 2026-05-08 03:38 | 33.11788 | -117.45658 | 13021 ft | 411 kts | 126° |
| 2026-05-08 03:38 | 33.10618 | -117.43827 | 13020 ft | 411 kts | 126° |
| 2026-05-08 03:39 | 33.08885 | -117.41116 | 13019 ft | 411 kts | 126° |
| 2026-05-08 03:39 | 33.07149 | -117.38406 | 13019 ft | 411 kts | 126° |
| 2026-05-08 03:39 | 33.05309 | -117.35799 | 12950 ft | 407 kts | 133° |
| 2026-05-08 03:39 | 33.03169 | -117.33661 | 12693 ft | 400 kts | 143° |
| 2026-05-08 03:40 | 33.00748 | -117.32032 | 12441 ft | 400 kts | 154° |
| 2026-05-08 03:40 | 32.98140 | -117.30881 | 12206 ft | 400 kts | 159° |
| 2026-05-08 03:40 | 32.95516 | -117.29798 | 11966 ft | 399 kts | 159° |
| 2026-05-08 03:40 | 32.92901 | -117.28701 | 11723 ft | 398 kts | 159° |
| 2026-05-08 03:41 | 32.90309 | -117.27607 | 11211 ft | 390 kts | 159° |
| 2026-05-08 03:41 | 32.87841 | -117.26573 | 10932 ft | 361 kts | 159° |
| 2026-05-08 03:41 | 32.85566 | -117.25627 | 10803 ft | 332 kts | 159° |
| 2026-05-08 03:41 | 32.83461 | -117.24748 | 10528 ft | 313 kts | 159° |
| 2026-05-08 03:42 | 32.81464 | -117.23836 | 10297 ft | 306 kts | 151° |
| 2026-05-08 03:42 | 32.79695 | -117.22487 | 10065 ft | 300 kts | 137° |
| 2026-05-08 03:42 | 32.78262 | -117.20710 | 9910 ft | 297 kts | 124° |
| 2026-05-08 03:42 | 32.77214 | -117.18616 | 9761 ft | 294 kts | 111° |
| 2026-05-08 03:43 | 32.76542 | -117.16338 | 9637 ft | 293 kts | 104° |
| 2026-05-08 03:43 | 32.75920 | -117.14023 | 9509 ft | 294 kts | 105° |
| 2026-05-08 03:43 | 32.75292 | -117.11709 | 9382 ft | 294 kts | 105° |
| 2026-05-08 03:43 | 32.74662 | -117.09386 | 8991 ft | 297 kts | 105° |
| 2026-05-08 03:44 | 32.74023 | -117.07036 | 8465 ft | 300 kts | 105° |
| 2026-05-08 03:44 | 32.73381 | -117.04681 | 7977 ft | 302 kts | 106° |
| 2026-05-08 03:44 | 32.72728 | -117.02288 | 7619 ft | 299 kts | 106° |
| 2026-05-08 03:44 | 32.72096 | -116.99972 | 7185 ft | 299 kts | 106° |
| 2026-05-08 03:45 | 32.71445 | -116.97593 | 6681 ft | 300 kts | 106° |
| 2026-05-08 03:45 | 32.70806 | -116.95259 | 6131 ft | 304 kts | 107° |
| 2026-05-08 03:45 | 32.70145 | -116.92856 | 5816 ft | 299 kts | 108° |
| 2026-05-08 03:45 | 32.69120 | -116.90699 | 5079 ft | 306 kts | 136° |
| 2026-05-08 03:46 | 32.67330 | -116.89548 | 4801 ft | 282 kts | 173° |
| 2026-05-08 03:46 | 32.65534 | -116.89756 | 4729 ft | 244 kts | 211° |
| 2026-05-08 03:46 | 32.64394 | -116.91046 | 4656 ft | 222 kts | 250° |
| 2026-05-08 03:46 | 32.64277 | -116.92742 | 4484 ft | 202 kts | 293° |
| 2026-05-08 03:47 | 32.65066 | -116.94082 | 4349 ft | 200 kts | 316° |
| 2026-05-08 03:47 | 32.66151 | -116.95101 | 4088 ft | 199 kts | 327° |
| 2026-05-08 03:47 | 32.67252 | -116.96063 | 3925 ft | 192 kts | 315° |
| 2026-05-08 03:47 | 32.68015 | -116.97296 | 3766 ft | 183 kts | 298° |
| 2026-05-08 03:48 | 32.68417 | -116.98727 | 3460 ft | 183 kts | 287° |
| 2026-05-08 03:48 | 32.68762 | -117.00177 | 3166 ft | 178 kts | 287° |
| 2026-05-08 03:48 | 32.69099 | -117.01551 | 2892 ft | 170 kts | 288° |
| 2026-05-08 03:48 | 32.69434 | -117.02877 | 2753 ft | 168 kts | 288° |
| 2026-05-08 03:49 | 32.69764 | -117.04207 | 2748 ft | 165 kts | 287° |
| 2026-05-08 03:49 | 32.70066 | -117.05442 | 2731 ft | 149 kts | 287° |
| 2026-05-08 03:49 | 32.70350 | -117.06603 | 2714 ft | 143 kts | 288° |
| 2026-05-08 03:49 | 32.70628 | -117.07732 | 2364 ft | 144 kts | 287° |
| 2026-05-08 03:50 | 32.70915 | -117.08885 | 2006 ft | 145 kts | 287° |
| 2026-05-08 03:50 | 32.71201 | -117.10028 | 1687 ft | 144 kts | 285° |
| 2026-05-08 03:50 | 32.71475 | -117.11165 | 1380 ft | 142 kts | 285° |
| 2026-05-08 03:50 | 32.71742 | -117.12267 | 1151 ft | 136 kts | 286° |
| 2026-05-08 03:51 | 32.72001 | -117.13333 | 953 ft | 134 kts | 286° |
| 2026-05-08 03:51 | 32.72252 | -117.14396 | 756 ft | 132 kts | 285° |
| 2026-05-08 03:51 | 32.72494 | -117.15443 | 628 ft | 131 kts | 286° |
| 2026-05-08 03:51 | 32.72749 | -117.16479 | 386 ft | 130 kts | 287° |
| 2026-05-08 03:52 | 32.72997 | -117.17512 | 150 ft | 130 kts | 286° |
| 2026-05-08 03:52 | 32.73246 | -117.18521 | 30 ft | 117 kts | 286° |
| 2026-05-08 03:52 | 32.73412 | -117.19193 | 22 ft | 53 kts | 285° |
| 2026-05-08 03:52 | 32.73503 | -117.19568 | 24 ft | 43 kts | 286° |
| 2026-05-08 03:53 | 32.73587 | -117.19900 | 24 ft | 44 kts | 286° |
| 2026-05-08 03:53 | 32.73638 | -117.20150 | 24 ft | 18 kts | 271° |
| 2026-05-08 03:53 | 32.73545 | -117.20227 | 23 ft | 17 kts | 181° |
| 2026-05-08 03:53 | 32.73496 | -117.20151 | 23 ft | 11 kts | 131° |
| 2026-05-08 03:54 | 32.73433 | -117.20126 | 23 ft | 7 kts | 166° |
| 2026-05-08 03:54 | 32.73416 | -117.20121 | 23 ft | 0 kts | 165° |
| 2026-05-08 03:54 | 32.73409 | -117.20119 | 23 ft | 0 kts | 164° |